sensor_id;sensor_type;location;lat;lon;timestamp;P1;durP1;ratioP1;P2;durP2;ratioP2
11665;SDS011;5889;51.350;6.708;2023-04-25T00:01:27;16.03;;;5.60;;
11665;SDS011;5889;51.350;6.708;2023-04-25T00:03:55;20.43;;;6.60;;
11665;SDS011;5889;51.350;6.708;2023-04-25T00:06:22;20.13;;;6.37;;
11665;SDS011;5889;51.350;6.708;2023-04-25T00:08:51;15.03;;;5.03;;
11665;SDS011;5889;51.350;6.708;2023-04-25T00:11:19;16.30;;;5.27;;
11665;SDS011;5889;51.350;6.708;2023-04-25T00:13:46;14.40;;;5.57;;
11665;SDS011;5889;51.350;6.708;2023-04-25T00:16:14;17.10;;;6.10;;
11665;SDS011;5889;51.350;6.708;2023-04-25T00:18:43;19.20;;;5.43;;
11665;SDS011;5889;51.350;6.708;2023-04-25T00:21:11;19.07;;;5.50;;
11665;SDS011;5889;51.350;6.708;2023-04-25T00:23:39;17.57;;;5.90;;
11665;SDS011;5889;51.350;6.708;2023-04-25T00:26:06;18.03;;;5.90;;
11665;SDS011;5889;51.350;6.708;2023-04-25T00:28:34;21.03;;;6.20;;
11665;SDS011;5889;51.350;6.708;2023-04-25T00:31:03;21.20;;;5.87;;
11665;SDS011;5889;51.350;6.708;2023-04-25T00:33:30;14.60;;;5.83;;
11665;SDS011;5889;51.350;6.708;2023-04-25T00:35:59;16.13;;;5.33;;
11665;SDS011;5889;51.350;6.708;2023-04-25T00:38:27;18.70;;;5.40;;
11665;SDS011;5889;51.350;6.708;2023-04-25T00:40:55;11.00;;;5.23;;
11665;SDS011;5889;51.350;6.708;2023-04-25T00:43:23;12.67;;;5.60;;
11665;SDS011;5889;51.350;6.708;2023-04-25T00:45:52;13.87;;;5.27;;
11665;SDS011;5889;51.350;6.708;2023-04-25T00:48:22;16.37;;;5.10;;
11665;SDS011;5889;51.350;6.708;2023-04-25T00:50:51;14.70;;;5.20;;
11665;SDS011;5889;51.350;6.708;2023-04-25T00:53:22;17.43;;;5.20;;
11665;SDS011;5889;51.350;6.708;2023-04-25T00:55:51;13.20;;;5.13;;
11665;SDS011;5889;51.350;6.708;2023-04-25T00:58:20;11.43;;;5.70;;
11665;SDS011;5889;51.350;6.708;2023-04-25T01:00:49;13.80;;;5.57;;
11665;SDS011;5889;51.350;6.708;2023-04-25T01:03:18;12.13;;;5.27;;
11665;SDS011;5889;51.350;6.708;2023-04-25T01:05:46;14.83;;;5.60;;
11665;SDS011;5889;51.350;6.708;2023-04-25T01:08:13;11.83;;;4.90;;
11665;SDS011;5889;51.350;6.708;2023-04-25T01:10:42;12.53;;;4.80;;
11665;SDS011;5889;51.350;6.708;2023-04-25T01:13:10;11.40;;;4.90;;
11665;SDS011;5889;51.350;6.708;2023-04-25T01:15:37;13.37;;;5.50;;
11665;SDS011;5889;51.350;6.708;2023-04-25T01:18:05;16.17;;;5.27;;
11665;SDS011;5889;51.350;6.708;2023-04-25T01:20:33;9.47;;;4.53;;
11665;SDS011;5889;51.350;6.708;2023-04-25T01:23:02;16.80;;;5.73;;
11665;SDS011;5889;51.350;6.708;2023-04-25T01:25:30;13.10;;;5.07;;
11665;SDS011;5889;51.350;6.708;2023-04-25T01:27:57;15.80;;;5.77;;
11665;SDS011;5889;51.350;6.708;2023-04-25T01:30:25;18.47;;;6.00;;
11665;SDS011;5889;51.350;6.708;2023-04-25T01:32:54;13.37;;;5.07;;
11665;SDS011;5889;51.350;6.708;2023-04-25T01:35:23;13.83;;;5.30;;
11665;SDS011;5889;51.350;6.708;2023-04-25T01:37:51;17.03;;;6.40;;
11665;SDS011;5889;51.350;6.708;2023-04-25T01:40:20;20.97;;;5.90;;
11665;SDS011;5889;51.350;6.708;2023-04-25T01:42:50;16.47;;;5.63;;
11665;SDS011;5889;51.350;6.708;2023-04-25T01:45:17;18.57;;;6.60;;
11665;SDS011;5889;51.350;6.708;2023-04-25T01:47:45;15.90;;;6.13;;
11665;SDS011;5889;51.350;6.708;2023-04-25T01:50:15;14.73;;;5.97;;
11665;SDS011;5889;51.350;6.708;2023-04-25T01:52:43;11.33;;;5.80;;
11665;SDS011;5889;51.350;6.708;2023-04-25T01:55:11;17.30;;;5.87;;
11665;SDS011;5889;51.350;6.708;2023-04-25T01:57:39;14.10;;;5.60;;
11665;SDS011;5889;51.350;6.708;2023-04-25T02:00:07;11.80;;;5.60;;
11665;SDS011;5889;51.350;6.708;2023-04-25T02:02:35;11.40;;;5.10;;
11665;SDS011;5889;51.350;6.708;2023-04-25T02:05:03;13.70;;;5.93;;
11665;SDS011;5889;51.350;6.708;2023-04-25T02:07:34;12.17;;;5.70;;
11665;SDS011;5889;51.350;6.708;2023-04-25T02:10:02;12.87;;;5.23;;
11665;SDS011;5889;51.350;6.708;2023-04-25T02:12:30;16.60;;;5.30;;
11665;SDS011;5889;51.350;6.708;2023-04-25T02:14:59;11.67;;;4.77;;
11665;SDS011;5889;51.350;6.708;2023-04-25T02:17:26;16.53;;;5.10;;
11665;SDS011;5889;51.350;6.708;2023-04-25T02:19:54;11.07;;;4.67;;
11665;SDS011;5889;51.350;6.708;2023-04-25T02:22:21;12.60;;;5.30;;
11665;SDS011;5889;51.350;6.708;2023-04-25T02:24:48;14.10;;;5.53;;
11665;SDS011;5889;51.350;6.708;2023-04-25T02:27:16;13.93;;;4.83;;
11665;SDS011;5889;51.350;6.708;2023-04-25T02:29:43;11.87;;;4.70;;
11665;SDS011;5889;51.350;6.708;2023-04-25T02:32:12;11.33;;;4.87;;
11665;SDS011;5889;51.350;6.708;2023-04-25T02:34:40;16.33;;;5.17;;
11665;SDS011;5889;51.350;6.708;2023-04-25T02:37:07;15.97;;;5.13;;
11665;SDS011;5889;51.350;6.708;2023-04-25T02:39:35;13.03;;;5.20;;
11665;SDS011;5889;51.350;6.708;2023-04-25T02:42:02;13.20;;;5.40;;
11665;SDS011;5889;51.350;6.708;2023-04-25T02:44:30;13.57;;;5.17;;
11665;SDS011;5889;51.350;6.708;2023-04-25T02:46:57;15.13;;;5.73;;
11665;SDS011;5889;51.350;6.708;2023-04-25T02:49:26;13.40;;;6.33;;
11665;SDS011;5889;51.350;6.708;2023-04-25T02:51:53;17.47;;;6.17;;
11665;SDS011;5889;51.350;6.708;2023-04-25T02:54:20;12.27;;;5.30;;
11665;SDS011;5889;51.350;6.708;2023-04-25T02:56:47;15.90;;;5.10;;
11665;SDS011;5889;51.350;6.708;2023-04-25T02:59:14;12.97;;;5.60;;
11665;SDS011;5889;51.350;6.708;2023-04-25T03:01:42;15.83;;;5.37;;
11665;SDS011;5889;51.350;6.708;2023-04-25T03:04:09;15.00;;;5.70;;
11665;SDS011;5889;51.350;6.708;2023-04-25T03:06:37;20.03;;;6.20;;
11665;SDS011;5889;51.350;6.708;2023-04-25T03:09:05;12.40;;;6.50;;
11665;SDS011;5889;51.350;6.708;2023-04-25T03:11:32;20.63;;;6.57;;
11665;SDS011;5889;51.350;6.708;2023-04-25T03:14:00;19.40;;;6.87;;
11665;SDS011;5889;51.350;6.708;2023-04-25T03:16:27;20.57;;;6.47;;
11665;SDS011;5889;51.350;6.708;2023-04-25T03:18:54;19.50;;;6.53;;
11665;SDS011;5889;51.350;6.708;2023-04-25T03:21:23;20.97;;;6.67;;
11665;SDS011;5889;51.350;6.708;2023-04-25T03:23:53;15.17;;;6.40;;
11665;SDS011;5889;51.350;6.708;2023-04-25T03:26:20;15.57;;;6.30;;
11665;SDS011;5889;51.350;6.708;2023-04-25T03:28:48;19.63;;;6.47;;
11665;SDS011;5889;51.350;6.708;2023-04-25T03:31:15;17.67;;;6.70;;
11665;SDS011;5889;51.350;6.708;2023-04-25T03:33:43;24.23;;;7.57;;
11665;SDS011;5889;51.350;6.708;2023-04-25T03:36:10;20.00;;;6.20;;
11665;SDS011;5889;51.350;6.708;2023-04-25T03:38:38;22.97;;;6.50;;
11665;SDS011;5889;51.350;6.708;2023-04-25T03:41:09;16.50;;;6.17;;
11665;SDS011;5889;51.350;6.708;2023-04-25T03:43:36;22.30;;;6.07;;
11665;SDS011;5889;51.350;6.708;2023-04-25T03:46:04;19.17;;;6.43;;
11665;SDS011;5889;51.350;6.708;2023-04-25T03:48:31;19.37;;;7.03;;
11665;SDS011;5889;51.350;6.708;2023-04-25T03:50:58;17.30;;;6.13;;
11665;SDS011;5889;51.350;6.708;2023-04-25T03:53:25;21.80;;;6.80;;
11665;SDS011;5889;51.350;6.708;2023-04-25T03:55:52;21.67;;;7.17;;
11665;SDS011;5889;51.350;6.708;2023-04-25T03:58:20;17.73;;;6.07;;
11665;SDS011;5889;51.350;6.708;2023-04-25T04:00:48;20.70;;;6.43;;
11665;SDS011;5889;51.350;6.708;2023-04-25T04:03:15;21.83;;;6.43;;
11665;SDS011;5889;51.350;6.708;2023-04-25T04:05:42;17.87;;;6.60;;
11665;SDS011;5889;51.350;6.708;2023-04-25T04:08:10;21.13;;;6.17;;
11665;SDS011;5889;51.350;6.708;2023-04-25T04:10:38;18.10;;;6.60;;
11665;SDS011;5889;51.350;6.708;2023-04-25T04:13:08;19.93;;;7.03;;
11665;SDS011;5889;51.350;6.708;2023-04-25T04:15:38;30.33;;;7.10;;
11665;SDS011;5889;51.350;6.708;2023-04-25T04:21:18;21.57;;;5.93;;
11665;SDS011;5889;51.350;6.708;2023-04-25T04:23:46;17.20;;;6.03;;
11665;SDS011;5889;51.350;6.708;2023-04-25T04:26:14;16.10;;;6.37;;
11665;SDS011;5889;51.350;6.708;2023-04-25T04:28:42;22.03;;;6.60;;
11665;SDS011;5889;51.350;6.708;2023-04-25T04:31:12;20.20;;;6.87;;
11665;SDS011;5889;51.350;6.708;2023-04-25T04:33:42;23.47;;;7.20;;
11665;SDS011;5889;51.350;6.708;2023-04-25T04:36:10;26.77;;;8.13;;
11665;SDS011;5889;51.350;6.708;2023-04-25T04:38:38;24.13;;;7.83;;
11665;SDS011;5889;51.350;6.708;2023-04-25T04:41:08;21.27;;;7.63;;
11665;SDS011;5889;51.350;6.708;2023-04-25T04:43:37;21.87;;;7.83;;
11665;SDS011;5889;51.350;6.708;2023-04-25T04:46:07;22.50;;;8.37;;
11665;SDS011;5889;51.350;6.708;2023-04-25T04:49:23;25.93;;;9.47;;
11665;SDS011;5889;51.350;6.708;2023-04-25T04:52:09;31.47;;;9.47;;
11665;SDS011;5889;51.350;6.708;2023-04-25T04:54:43;22.23;;;8.93;;
11665;SDS011;5889;51.350;6.708;2023-04-25T04:57:18;26.07;;;9.10;;
11665;SDS011;5889;51.350;6.708;2023-04-25T04:59:47;23.40;;;9.17;;
11665;SDS011;5889;51.350;6.708;2023-04-25T05:02:16;28.47;;;10.53;;
11665;SDS011;5889;51.350;6.708;2023-04-25T05:04:51;21.30;;;8.53;;
11665;SDS011;5889;51.350;6.708;2023-04-25T05:07:28;26.77;;;8.40;;
11665;SDS011;5889;51.350;6.708;2023-04-25T05:09:56;24.13;;;7.80;;
11665;SDS011;5889;51.350;6.708;2023-04-25T05:12:26;27.33;;;8.23;;
11665;SDS011;5889;51.350;6.708;2023-04-25T05:14:59;21.47;;;7.80;;
11665;SDS011;5889;51.350;6.708;2023-04-25T05:17:32;22.13;;;7.63;;
11665;SDS011;5889;51.350;6.708;2023-04-25T05:20:01;24.67;;;8.90;;
11665;SDS011;5889;51.350;6.708;2023-04-25T05:22:32;20.00;;;8.33;;
11665;SDS011;5889;51.350;6.708;2023-04-25T05:25:08;27.03;;;7.83;;
11665;SDS011;5889;51.350;6.708;2023-04-25T05:27:55;27.63;;;8.53;;
11665;SDS011;5889;51.350;6.708;2023-04-25T05:30:26;25.20;;;8.27;;
11665;SDS011;5889;51.350;6.708;2023-04-25T05:32:55;18.57;;;7.80;;
11665;SDS011;5889;51.350;6.708;2023-04-25T05:35:23;20.43;;;7.70;;
11665;SDS011;5889;51.350;6.708;2023-04-25T05:37:51;24.33;;;7.97;;
11665;SDS011;5889;51.350;6.708;2023-04-25T05:40:18;21.97;;;8.40;;
11665;SDS011;5889;51.350;6.708;2023-04-25T05:42:45;24.87;;;7.77;;
11665;SDS011;5889;51.350;6.708;2023-04-25T05:45:21;20.70;;;7.10;;
11665;SDS011;5889;51.350;6.708;2023-04-25T05:48:01;20.70;;;7.30;;
11665;SDS011;5889;51.350;6.708;2023-04-25T05:50:31;21.37;;;6.43;;
11665;SDS011;5889;51.350;6.708;2023-04-25T05:58:43;18.97;;;7.47;;
11665;SDS011;5889;51.350;6.708;2023-04-25T06:04:34;25.23;;;8.13;;
11665;SDS011;5889;51.350;6.708;2023-04-25T06:49:08;18.83;;;5.50;;
11665;SDS011;5889;51.350;6.708;2023-04-25T06:51:35;17.70;;;5.40;;
11665;SDS011;5889;51.350;6.708;2023-04-25T06:54:02;21.40;;;5.50;;
11665;SDS011;5889;51.350;6.708;2023-04-25T06:56:30;19.67;;;5.70;;
11665;SDS011;5889;51.350;6.708;2023-04-25T06:58:58;25.30;;;5.23;;
11665;SDS011;5889;51.350;6.708;2023-04-25T07:01:25;14.53;;;4.50;;
11665;SDS011;5889;51.350;6.708;2023-04-25T07:03:52;14.37;;;4.67;;
11665;SDS011;5889;51.350;6.708;2023-04-25T07:06:38;19.67;;;4.70;;
11665;SDS011;5889;51.350;6.708;2023-04-25T07:09:07;19.40;;;4.80;;
11665;SDS011;5889;51.350;6.708;2023-04-25T07:11:35;13.97;;;4.83;;
11665;SDS011;5889;51.350;6.708;2023-04-25T07:14:02;19.40;;;4.70;;
11665;SDS011;5889;51.350;6.708;2023-04-25T07:16:28;17.03;;;4.50;;
11665;SDS011;5889;51.350;6.708;2023-04-25T07:18:55;13.77;;;4.10;;
11665;SDS011;5889;51.350;6.708;2023-04-25T07:21:22;13.97;;;4.30;;
11665;SDS011;5889;51.350;6.708;2023-04-25T07:23:51;14.47;;;4.00;;
11665;SDS011;5889;51.350;6.708;2023-04-25T07:26:18;16.50;;;4.30;;
11665;SDS011;5889;51.350;6.708;2023-04-25T07:28:45;13.93;;;4.20;;
11665;SDS011;5889;51.350;6.708;2023-04-25T07:31:16;10.00;;;4.10;;
11665;SDS011;5889;51.350;6.708;2023-04-25T07:34:01;18.00;;;4.33;;
11665;SDS011;5889;51.350;6.708;2023-04-25T07:36:28;15.20;;;4.47;;
11665;SDS011;5889;51.350;6.708;2023-04-25T07:38:57;14.30;;;4.73;;
11665;SDS011;5889;51.350;6.708;2023-04-25T07:41:24;15.00;;;3.60;;
11665;SDS011;5889;51.350;6.708;2023-04-25T07:43:51;14.27;;;3.87;;
11665;SDS011;5889;51.350;6.708;2023-04-25T07:46:18;11.00;;;3.77;;
11665;SDS011;5889;51.350;6.708;2023-04-25T07:48:45;8.80;;;3.27;;
11665;SDS011;5889;51.350;6.708;2023-04-25T07:51:12;13.90;;;3.60;;
11665;SDS011;5889;51.350;6.708;2023-04-25T07:53:39;12.20;;;4.00;;
11665;SDS011;5889;51.350;6.708;2023-04-25T07:56:15;12.27;;;3.70;;
11665;SDS011;5889;51.350;6.708;2023-04-25T07:58:42;16.57;;;4.07;;
11665;SDS011;5889;51.350;6.708;2023-04-25T08:01:09;10.63;;;4.03;;
11665;SDS011;5889;51.350;6.708;2023-04-25T08:03:36;12.50;;;3.67;;
11665;SDS011;5889;51.350;6.708;2023-04-25T08:06:03;16.13;;;3.70;;
11665;SDS011;5889;51.350;6.708;2023-04-25T08:08:31;13.43;;;3.73;;
11665;SDS011;5889;51.350;6.708;2023-04-25T08:10:58;12.87;;;4.13;;
11665;SDS011;5889;51.350;6.708;2023-04-25T08:13:26;14.30;;;3.47;;
11665;SDS011;5889;51.350;6.708;2023-04-25T08:15:53;15.60;;;3.30;;
11665;SDS011;5889;51.350;6.708;2023-04-25T08:36:27;19.10;;;6.93;;
11665;SDS011;5889;51.350;6.708;2023-04-25T08:38:55;12.77;;;3.50;;
11665;SDS011;5889;51.350;6.708;2023-04-25T08:41:25;14.37;;;3.10;;
11665;SDS011;5889;51.350;6.708;2023-04-25T08:43:54;9.10;;;2.30;;
11665;SDS011;5889;51.350;6.708;2023-04-25T08:46:22;12.60;;;3.60;;
11665;SDS011;5889;51.350;6.708;2023-04-25T08:48:49;8.33;;;3.40;;
11665;SDS011;5889;51.350;6.708;2023-04-25T08:51:21;16.27;;;3.20;;
11665;SDS011;5889;51.350;6.708;2023-04-25T08:53:52;12.40;;;3.10;;
11665;SDS011;5889;51.350;6.708;2023-04-25T08:56:32;13.37;;;2.97;;
11665;SDS011;5889;51.350;6.708;2023-04-25T08:59:14;9.17;;;2.77;;
11665;SDS011;5889;51.350;6.708;2023-04-25T09:01:45;9.43;;;2.70;;
11665;SDS011;5889;51.350;6.708;2023-04-25T09:04:20;11.67;;;2.60;;
11665;SDS011;5889;51.350;6.708;2023-04-25T09:47:28;11.90;;;2.33;;
11665;SDS011;5889;51.350;6.708;2023-04-25T09:50:15;9.43;;;2.53;;
11665;SDS011;5889;51.350;6.708;2023-04-25T09:53:02;12.97;;;2.73;;
11665;SDS011;5889;51.350;6.708;2023-04-25T09:55:32;8.97;;;2.13;;
11665;SDS011;5889;51.350;6.708;2023-04-25T09:58:03;9.10;;;2.57;;
11665;SDS011;5889;51.350;6.708;2023-04-25T10:00:38;10.50;;;2.47;;
11665;SDS011;5889;51.350;6.708;2023-04-25T10:03:12;9.47;;;2.33;;
11665;SDS011;5889;51.350;6.708;2023-04-25T10:06:28;7.30;;;1.77;;
11665;SDS011;5889;51.350;6.708;2023-04-25T10:08:58;5.70;;;1.77;;
11665;SDS011;5889;51.350;6.708;2023-04-25T10:11:37;7.37;;;2.00;;
11665;SDS011;5889;51.350;6.708;2023-04-25T10:14:06;6.27;;;1.90;;
11665;SDS011;5889;51.350;6.708;2023-04-25T10:16:41;7.07;;;1.83;;
11665;SDS011;5889;51.350;6.708;2023-04-25T10:19:20;5.43;;;2.23;;
11665;SDS011;5889;51.350;6.708;2023-04-25T10:22:06;12.70;;;2.80;;
11665;SDS011;5889;51.350;6.708;2023-04-25T10:24:34;5.53;;;2.17;;
11665;SDS011;5889;51.350;6.708;2023-04-25T10:27:02;7.20;;;2.00;;
11665;SDS011;5889;51.350;6.708;2023-04-25T10:29:29;7.63;;;1.67;;
11665;SDS011;5889;51.350;6.708;2023-04-25T10:31:55;10.13;;;2.27;;
11665;SDS011;5889;51.350;6.708;2023-04-25T10:34:25;3.50;;;1.60;;
11665;SDS011;5889;51.350;6.708;2023-04-25T10:37:05;6.00;;;1.53;;
11665;SDS011;5889;51.350;6.708;2023-04-25T10:39:34;5.47;;;1.80;;
11665;SDS011;5889;51.350;6.708;2023-04-25T10:42:01;6.60;;;1.87;;
11665;SDS011;5889;51.350;6.708;2023-04-25T10:44:29;6.00;;;2.23;;
11665;SDS011;5889;51.350;6.708;2023-04-25T10:46:56;4.60;;;1.80;;
11665;SDS011;5889;51.350;6.708;2023-04-25T10:49:32;6.87;;;2.10;;
11665;SDS011;5889;51.350;6.708;2023-04-25T10:52:12;5.90;;;1.80;;
11665;SDS011;5889;51.350;6.708;2023-04-25T10:54:43;7.83;;;2.27;;
11665;SDS011;5889;51.350;6.708;2023-04-25T10:57:32;9.20;;;2.37;;
11665;SDS011;5889;51.350;6.708;2023-04-25T11:00:06;5.23;;;1.97;;
11665;SDS011;5889;51.350;6.708;2023-04-25T11:02:42;6.70;;;2.10;;
11665;SDS011;5889;51.350;6.708;2023-04-25T11:05:19;6.40;;;1.97;;
11665;SDS011;5889;51.350;6.708;2023-04-25T11:07:51;5.67;;;2.00;;
11665;SDS011;5889;51.350;6.708;2023-04-25T11:10:21;5.83;;;1.80;;
11665;SDS011;5889;51.350;6.708;2023-04-25T11:12:51;3.83;;;1.70;;
11665;SDS011;5889;51.350;6.708;2023-04-25T11:15:21;6.70;;;2.77;;
11665;SDS011;5889;51.350;6.708;2023-04-25T11:17:51;7.87;;;2.73;;
11665;SDS011;5889;51.350;6.708;2023-04-25T11:20:19;11.50;;;2.73;;
11665;SDS011;5889;51.350;6.708;2023-04-25T11:22:47;7.97;;;2.43;;
11665;SDS011;5889;51.350;6.708;2023-04-25T11:25:15;6.10;;;2.70;;
11665;SDS011;5889;51.350;6.708;2023-04-25T11:27:51;5.87;;;1.97;;
11665;SDS011;5889;51.350;6.708;2023-04-25T12:04:42;9.00;;;2.87;;
11665;SDS011;5889;51.350;6.708;2023-04-25T12:07:18;5.87;;;3.20;;
11665;SDS011;5889;51.350;6.708;2023-04-25T12:09:58;9.53;;;2.73;;
11665;SDS011;5889;51.350;6.708;2023-04-25T12:13:17;9.53;;;3.07;;
11665;SDS011;5889;51.350;6.708;2023-04-25T12:16:26;8.10;;;3.23;;
11665;SDS011;5889;51.350;6.708;2023-04-25T12:19:05;13.60;;;4.00;;
11665;SDS011;5889;51.350;6.708;2023-04-25T12:25:53;5.23;;;2.10;;
11665;SDS011;5889;51.350;6.708;2023-04-25T12:29:24;7.20;;;2.30;;
11665;SDS011;5889;51.350;6.708;2023-04-25T12:31:55;7.90;;;2.20;;
11665;SDS011;5889;51.350;6.708;2023-04-25T12:35:07;7.50;;;2.60;;
11665;SDS011;5889;51.350;6.708;2023-04-25T12:38:01;7.30;;;2.93;;
11665;SDS011;5889;51.350;6.708;2023-04-25T12:44:15;6.77;;;2.33;;
11665;SDS011;5889;51.350;6.708;2023-04-25T12:47:03;7.77;;;3.23;;
11665;SDS011;5889;51.350;6.708;2023-04-25T12:53:09;6.50;;;2.47;;
11665;SDS011;5889;51.350;6.708;2023-04-25T12:55:41;5.00;;;2.30;;
11665;SDS011;5889;51.350;6.708;2023-04-25T12:58:12;5.83;;;2.17;;
11665;SDS011;5889;51.350;6.708;2023-04-25T13:00:39;9.97;;;2.83;;
11665;SDS011;5889;51.350;6.708;2023-04-25T13:03:07;8.43;;;2.57;;
11665;SDS011;5889;51.350;6.708;2023-04-25T13:05:34;6.40;;;2.63;;
11665;SDS011;5889;51.350;6.708;2023-04-25T13:08:02;5.57;;;1.87;;
11665;SDS011;5889;51.350;6.708;2023-04-25T13:10:30;7.93;;;2.10;;
11665;SDS011;5889;51.350;6.708;2023-04-25T13:12:58;5.40;;;2.10;;
11665;SDS011;5889;51.350;6.708;2023-04-25T13:15:29;7.87;;;2.70;;
11665;SDS011;5889;51.350;6.708;2023-04-25T13:17:57;7.57;;;2.10;;
11665;SDS011;5889;51.350;6.708;2023-04-25T13:20:26;8.73;;;2.20;;
11665;SDS011;5889;51.350;6.708;2023-04-25T13:22:53;7.23;;;2.47;;
11665;SDS011;5889;51.350;6.708;2023-04-25T13:25:21;6.97;;;2.10;;
11665;SDS011;5889;51.350;6.708;2023-04-25T13:27:48;4.33;;;2.00;;
11665;SDS011;5889;51.350;6.708;2023-04-25T13:30:15;6.63;;;2.00;;
11665;SDS011;5889;51.350;6.708;2023-04-25T13:32:47;3.37;;;1.67;;
11665;SDS011;5889;51.350;6.708;2023-04-25T13:37:50;14.80;;;3.67;;
11665;SDS011;5889;51.350;6.708;2023-04-25T13:40:17;9.10;;;2.90;;
11665;SDS011;5889;51.350;6.708;2023-04-25T13:42:44;6.50;;;1.97;;
11665;SDS011;5889;51.350;6.708;2023-04-25T13:45:11;3.93;;;1.63;;
11665;SDS011;5889;51.350;6.708;2023-04-25T13:50:56;4.50;;;2.00;;
11665;SDS011;5889;51.350;6.708;2023-04-25T13:53:23;8.97;;;1.67;;
11665;SDS011;5889;51.350;6.708;2023-04-25T14:01:01;4.80;;;1.53;;
11665;SDS011;5889;51.350;6.708;2023-04-25T14:03:33;7.30;;;1.80;;
11665;SDS011;5889;51.350;6.708;2023-04-25T14:06:02;7.37;;;1.77;;
11665;SDS011;5889;51.350;6.708;2023-04-25T14:08:34;4.27;;;1.77;;
11665;SDS011;5889;51.350;6.708;2023-04-25T14:11:02;5.13;;;1.97;;
11665;SDS011;5889;51.350;6.708;2023-04-25T14:13:47;7.63;;;2.30;;
11665;SDS011;5889;51.350;6.708;2023-04-25T14:16:38;4.77;;;2.00;;
11665;SDS011;5889;51.350;6.708;2023-04-25T14:19:28;8.97;;;1.90;;
11665;SDS011;5889;51.350;6.708;2023-04-25T14:21:57;5.73;;;2.10;;
11665;SDS011;5889;51.350;6.708;2023-04-25T14:24:24;5.10;;;1.93;;
11665;SDS011;5889;51.350;6.708;2023-04-25T14:26:51;6.83;;;1.67;;
11665;SDS011;5889;51.350;6.708;2023-04-25T14:29:18;6.93;;;1.90;;
11665;SDS011;5889;51.350;6.708;2023-04-25T14:31:45;7.83;;;1.77;;
11665;SDS011;5889;51.350;6.708;2023-04-25T14:34:12;6.63;;;1.97;;
11665;SDS011;5889;51.350;6.708;2023-04-25T14:36:39;8.80;;;1.93;;
11665;SDS011;5889;51.350;6.708;2023-04-25T14:39:08;7.20;;;2.30;;
11665;SDS011;5889;51.350;6.708;2023-04-25T14:41:35;9.27;;;2.40;;
11665;SDS011;5889;51.350;6.708;2023-04-25T14:44:03;6.80;;;1.63;;
11665;SDS011;5889;51.350;6.708;2023-04-25T14:46:31;5.23;;;1.60;;
11665;SDS011;5889;51.350;6.708;2023-04-25T14:48:58;9.70;;;2.50;;
11665;SDS011;5889;51.350;6.708;2023-04-25T14:51:25;6.33;;;1.83;;
11665;SDS011;5889;51.350;6.708;2023-04-25T14:53:53;4.57;;;1.60;;
11665;SDS011;5889;51.350;6.708;2023-04-25T14:56:21;5.70;;;1.90;;
11665;SDS011;5889;51.350;6.708;2023-04-25T14:58:49;7.97;;;1.77;;
11665;SDS011;5889;51.350;6.708;2023-04-25T15:01:16;5.47;;;1.67;;
11665;SDS011;5889;51.350;6.708;2023-04-25T15:03:45;7.00;;;2.00;;
11665;SDS011;5889;51.350;6.708;2023-04-25T15:06:13;6.47;;;2.10;;
11665;SDS011;5889;51.350;6.708;2023-04-25T15:08:40;7.53;;;1.70;;
11665;SDS011;5889;51.350;6.708;2023-04-25T15:11:10;5.80;;;1.90;;
11665;SDS011;5889;51.350;6.708;2023-04-25T15:13:39;8.00;;;1.80;;
11665;SDS011;5889;51.350;6.708;2023-04-25T15:16:06;6.83;;;2.13;;
11665;SDS011;5889;51.350;6.708;2023-04-25T15:18:33;4.17;;;1.37;;
11665;SDS011;5889;51.350;6.708;2023-04-25T15:21:00;7.00;;;2.27;;
11665;SDS011;5889;51.350;6.708;2023-04-25T15:23:27;8.93;;;1.77;;
11665;SDS011;5889;51.350;6.708;2023-04-25T15:25:55;10.07;;;2.07;;
11665;SDS011;5889;51.350;6.708;2023-04-25T15:28:24;5.53;;;1.70;;
11665;SDS011;5889;51.350;6.708;2023-04-25T15:30:53;4.17;;;1.57;;
11665;SDS011;5889;51.350;6.708;2023-04-25T15:33:23;3.97;;;1.70;;
11665;SDS011;5889;51.350;6.708;2023-04-25T15:35:50;5.43;;;1.43;;
11665;SDS011;5889;51.350;6.708;2023-04-25T15:38:17;4.67;;;1.90;;
11665;SDS011;5889;51.350;6.708;2023-04-25T15:40:44;4.20;;;1.53;;
11665;SDS011;5889;51.350;6.708;2023-04-25T15:43:13;6.43;;;1.63;;
11665;SDS011;5889;51.350;6.708;2023-04-25T15:45:44;6.30;;;1.70;;
11665;SDS011;5889;51.350;6.708;2023-04-25T15:48:12;4.20;;;1.30;;
11665;SDS011;5889;51.350;6.708;2023-04-25T15:50:42;6.33;;;1.50;;
11665;SDS011;5889;51.350;6.708;2023-04-25T15:53:17;4.53;;;2.03;;
11665;SDS011;5889;51.350;6.708;2023-04-25T15:55:56;7.33;;;1.97;;
11665;SDS011;5889;51.350;6.708;2023-04-25T15:58:26;6.93;;;2.23;;
11665;SDS011;5889;51.350;6.708;2023-04-25T16:00:55;6.73;;;1.90;;
11665;SDS011;5889;51.350;6.708;2023-04-25T16:03:24;11.07;;;2.93;;
11665;SDS011;5889;51.350;6.708;2023-04-25T16:05:55;6.67;;;2.07;;
11665;SDS011;5889;51.350;6.708;2023-04-25T16:08:29;5.70;;;1.63;;
11665;SDS011;5889;51.350;6.708;2023-04-25T16:11:08;8.73;;;2.10;;
11665;SDS011;5889;51.350;6.708;2023-04-25T16:13:55;10.80;;;2.27;;
11665;SDS011;5889;51.350;6.708;2023-04-25T16:16:25;4.73;;;1.80;;
11665;SDS011;5889;51.350;6.708;2023-04-25T16:36:03;6.97;;;1.80;;
11665;SDS011;5889;51.350;6.708;2023-04-25T16:38:38;4.63;;;1.60;;
11665;SDS011;5889;51.350;6.708;2023-04-25T16:41:06;4.50;;;1.70;;
11665;SDS011;5889;51.350;6.708;2023-04-25T16:43:33;8.27;;;1.60;;
11665;SDS011;5889;51.350;6.708;2023-04-25T16:46:04;2.60;;;1.60;;
11665;SDS011;5889;51.350;6.708;2023-04-25T16:48:34;5.20;;;1.60;;
11665;SDS011;5889;51.350;6.708;2023-04-25T16:51:03;3.63;;;1.47;;
11665;SDS011;5889;51.350;6.708;2023-04-25T16:53:30;6.20;;;1.53;;
11665;SDS011;5889;51.350;6.708;2023-04-25T16:55:57;4.20;;;1.60;;
11665;SDS011;5889;51.350;6.708;2023-04-25T16:58:24;7.97;;;1.83;;
11665;SDS011;5889;51.350;6.708;2023-04-25T17:00:53;3.20;;;1.47;;
11665;SDS011;5889;51.350;6.708;2023-04-25T17:03:23;5.10;;;1.70;;
11665;SDS011;5889;51.350;6.708;2023-04-25T17:05:54;5.57;;;1.40;;
11665;SDS011;5889;51.350;6.708;2023-04-25T17:08:27;3.53;;;1.47;;
11665;SDS011;5889;51.350;6.708;2023-04-25T17:10:59;6.63;;;1.57;;
11665;SDS011;5889;51.350;6.708;2023-04-25T17:13:30;3.43;;;1.50;;
11665;SDS011;5889;51.350;6.708;2023-04-25T17:15:59;4.07;;;1.33;;
11665;SDS011;5889;51.350;6.708;2023-04-25T17:18:26;2.07;;;1.40;;
11665;SDS011;5889;51.350;6.708;2023-04-25T17:20:53;9.67;;;1.50;;
11665;SDS011;5889;51.350;6.708;2023-04-25T17:23:22;2.77;;;1.33;;
11665;SDS011;5889;51.350;6.708;2023-04-25T17:25:55;4.40;;;1.60;;
11665;SDS011;5889;51.350;6.708;2023-04-25T17:28:22;5.80;;;1.40;;
11665;SDS011;5889;51.350;6.708;2023-04-25T17:30:50;6.57;;;1.60;;
11665;SDS011;5889;51.350;6.708;2023-04-25T17:33:21;4.90;;;1.30;;
11665;SDS011;5889;51.350;6.708;2023-04-25T17:35:50;8.20;;;1.33;;
11665;SDS011;5889;51.350;6.708;2023-04-25T17:38:18;3.50;;;1.40;;
11665;SDS011;5889;51.350;6.708;2023-04-25T17:40:45;6.93;;;1.77;;
11665;SDS011;5889;51.350;6.708;2023-04-25T17:43:14;5.67;;;2.13;;
11665;SDS011;5889;51.350;6.708;2023-04-25T17:45:41;5.97;;;1.63;;
11665;SDS011;5889;51.350;6.708;2023-04-25T17:48:07;4.37;;;1.63;;
11665;SDS011;5889;51.350;6.708;2023-04-25T17:50:34;6.57;;;1.70;;
11665;SDS011;5889;51.350;6.708;2023-04-25T17:53:01;7.10;;;1.50;;
11665;SDS011;5889;51.350;6.708;2023-04-25T17:55:29;5.10;;;1.83;;
11665;SDS011;5889;51.350;6.708;2023-04-25T17:57:56;4.77;;;1.40;;
11665;SDS011;5889;51.350;6.708;2023-04-25T18:00:24;4.43;;;1.60;;
11665;SDS011;5889;51.350;6.708;2023-04-25T18:02:51;5.03;;;1.37;;
11665;SDS011;5889;51.350;6.708;2023-04-25T18:05:18;6.20;;;1.60;;
11665;SDS011;5889;51.350;6.708;2023-04-25T18:07:45;4.33;;;1.50;;
11665;SDS011;5889;51.350;6.708;2023-04-25T18:10:13;5.47;;;1.67;;
11665;SDS011;5889;51.350;6.708;2023-04-25T18:12:40;11.10;;;2.40;;
11665;SDS011;5889;51.350;6.708;2023-04-25T18:15:07;3.50;;;1.50;;
11665;SDS011;5889;51.350;6.708;2023-04-25T18:17:36;5.70;;;1.83;;
11665;SDS011;5889;51.350;6.708;2023-04-25T18:20:05;6.37;;;1.83;;